Time;durP1;ratioP1;P1;durP2;ratioP2;P2;SDS_P1;SDS_P2;PMS_P1;PMS_P2;Temp;Humidity;BMP_temperature;BMP_pressure;BME280_temperature;BME280_humidity;BME280_pressure;Samples;Min_cycle;Max_cycle;Signal;HPM_P1;HPM_P2
2022/12/17 13:06:53;;;;;;;14.35;13.00;;;;;;;;;;5012021;28;20022;-51
2022/12/17 13:09:21;;;;;;;21.88;13.98;;;;;;;;;;5011828;28;20030;-52
2022/12/17 13:12:07;;;;;;;11.30;10.55;;;;;;;;;;5009071;28;20560;-53
2022/12/17 13:14:34;;;;;;;13.30;12.38;;;;;;;;;;5012172;28;20159;-51
2022/12/17 13:17:25;;;;;;;14.98;13.63;;;;;;;;;;5012330;28;20061;-51
2022/12/17 13:19:56;;;;;;;13.52;12.63;;;;;;;;;;5013520;28;20033;-51
2022/12/17 13:22:22;;;;;;;12.77;11.70;;;;;;;;;;5010633;28;20099;-53
2022/12/17 13:24:50;;;;;;;13.55;12.43;;;;;;;;;;5012071;28;20809;-53
2022/12/17 13:27:37;;;;;;;14.00;12.43;;;;;;;;;;5011242;28;21968;-50
2022/12/17 13:30:17;;;;;;;14.13;13.10;;;;;;;;;;5013632;28;20668;-50
2022/12/17 13:33:14;;;;;;;12.05;11.15;;;;;;;;;;5010452;28;20479;-53
2022/12/17 13:35:51;;;;;;;13.02;11.95;;;;;;;;;;5009592;28;20056;-51
2022/12/17 13:38:37;;;;;;;17.38;14.82;;;;;;;;;;5010131;28;20030;-53
2022/12/17 13:41:19;;;;;;;14.00;12.95;;;;;;;;;;5011865;28;20033;-52
2022/12/17 13:43:56;;;;;;;15.23;14.00;;;;;;;;;;5010268;28;20038;-52
2022/12/17 13:46:24;;;;;;;13.73;12.30;;;;;;;;;;5010644;28;20627;-52
2022/12/17 13:48:56;;;;;;;14.43;13.23;;;;;;;;;;5009078;28;20538;-52
2022/12/17 13:51:23;;;;;;;13.80;12.68;;;;;;;;;;5010491;28;20045;-51
2022/12/17 13:53:57;;;;;;;12.23;11.15;;;;;;;;;;5015017;28;20042;-53
2022/12/17 13:56:34;;;;;;;13.38;12.45;;;;;;;;;;5014690;28;20033;-56
2022/12/17 13:59:01;;;;;;;13.18;12.23;;;;;;;;;;5016067;28;20065;-50
2022/12/17 14:01:28;;;;;;;15.85;14.70;;;;;;;;;;5016365;28;20117;-49
2022/12/17 14:03:58;;;;;;;13.93;12.52;;;;;;;;;;5013007;28;20105;-53
2022/12/17 14:06:31;;;;;;;12.35;11.27;;;;;;;;;;5018730;28;20048;-53
2022/12/17 14:08:57;;;;;;;14.25;13.25;;;;;;;;;;5015829;28;20050;-51
2022/12/17 14:14:29;;;;;;;15.40;14.27;;;;;;;;;;5015795;28;20029;-50
2022/12/17 14:16:54;;;;;;;15.35;14.25;;;;;;;;;;5016139;28;20148;-52
2022/12/17 14:19:21;;;;;;;13.57;12.48;;;;;;;;;;5018629;28;20148;-50
2022/12/17 14:21:46;;;;;;;15.48;14.27;;;;;;;;;;5013727;28;20038;-51
2022/12/17 14:24:12;;;;;;;16.63;15.27;;;;;;;;;;5017639;28;20526;-51
2022/12/17 14:26:52;;;;;;;15.88;14.23;;;;;;;;;;5016273;28;20055;-52
2022/12/17 14:29:29;;;;;;;14.43;13.10;;;;;;;;;;5013484;28;20041;-51
2022/12/17 14:31:57;;;;;;;14.27;13.23;;;;;;;;;;5015180;28;20109;-52
2022/12/17 14:34:23;;;;;;;14.00;12.88;;;;;;;;;;5016554;28;20033;-53
2022/12/17 14:36:57;;;;;;;11.98;11.07;;;;;;;;;;5017177;28;20033;-54
2022/12/17 14:39:24;;;;;;;14.07;13.05;;;;;;;;;;5016109;28;20036;-54
2022/12/17 14:44:35;;;;;;;14.43;13.15;;;;;;;;;;5014961;28;20470;-51
2022/12/17 14:47:15;;;;;;;13.32;12.25;;;;;;;;;;5014296;28;20198;-53
2022/12/17 14:49:59;;;;;;;11.32;10.63;;;;;;;;;;5016410;28;20041;-50
2022/12/17 14:52:45;;;;;;;13.75;12.73;;;;;;;;;;5016811;28;20049;-53
2022/12/17 14:55:36;;;;;;;14.70;13.43;;;;;;;;;;5014494;28;20034;-53
2022/12/17 14:58:12;;;;;;;12.65;11.65;;;;;;;;;;5014286;28;20037;-53
2022/12/17 15:00:44;;;;;;;11.93;11.13;;;;;;;;;;5014996;28;20052;-53
2022/12/17 15:03:21;;;;;;;11.32;10.45;;;;;;;;;;5015399;28;20355;-51
2022/12/17 15:05:50;;;;;;;15.68;14.57;;;;;;;;;;5014200;28;20068;-51
2022/12/17 15:08:16;;;;;;;14.25;13.07;;;;;;;;;;5016046;28;20095;-55
2022/12/17 15:10:41;;;;;;;14.50;13.38;;;;;;;;;;5017536;28;21971;-54
2022/12/17 15:13:06;;;;;;;14.73;13.52;;;;;;;;;;5015649;28;20519;-61
2022/12/17 15:15:32;;;;;;;11.45;10.75;;;;;;;;;;5016946;28;20071;-62
2022/12/17 15:17:58;;;;;;;13.90;12.68;;;;;;;;;;5014486;28;20025;-61
2022/12/17 15:20:23;;;;;;;12.50;11.57;;;;;;;;;;5015613;28;20041;-61
2022/12/17 15:22:48;;;;;;;14.02;12.95;;;;;;;;;;5012790;28;20041;-60
2022/12/17 15:25:17;;;;;;;16.33;14.18;;;;;;;;;;5015006;28;20144;-60
2022/12/17 15:27:42;;;;;;;16.60;15.18;;;;;;;;;;5009991;28;21225;-61
2022/12/17 15:30:16;;;;;;;16.98;15.68;;;;;;;;;;5015372;28;20037;-61
2022/12/17 15:32:42;;;;;;;13.73;12.65;;;;;;;;;;5014709;28;20388;-61
2022/12/17 15:35:08;;;;;;;12.32;11.43;;;;;;;;;;5016527;28;20076;-61
2022/12/17 15:37:33;;;;;;;14.35;12.88;;;;;;;;;;5011276;28;20033;-61
2022/12/17 15:39:59;;;;;;;13.40;12.43;;;;;;;;;;5013141;28;20509;-61
2022/12/17 15:45:08;;;;;;;12.80;11.82;;;;;;;;;;5015911;28;20117;-60
2022/12/17 15:47:33;;;;;;;15.98;14.60;;;;;;;;;;5013050;28;20144;-52
2022/12/17 15:49:59;;;;;;;13.63;12.65;;;;;;;;;;5016266;28;20041;-52
2022/12/17 15:52:24;;;;;;;12.88;11.95;;;;;;;;;;5015028;28;20121;-53
2022/12/17 15:54:50;;;;;;;13.88;12.88;;;;;;;;;;5014010;28;20068;-51
2022/12/17 15:57:15;;;;;;;14.73;13.35;;;;;;;;;;5014113;28;20029;-49
2022/12/17 15:59:40;;;;;;;14.85;13.88;;;;;;;;;;5014317;28;20487;-53
2022/12/17 16:02:07;;;;;;;13.77;12.73;;;;;;;;;;5012588;28;20039;-53
2022/12/17 16:04:33;;;;;;;13.52;12.43;;;;;;;;;;5013017;28;20116;-53
2022/12/17 16:06:58;;;;;;;16.38;14.85;;;;;;;;;;5012992;28;20136;-51
2022/12/17 16:09:25;;;;;;;15.65;14.35;;;;;;;;;;5014590;28;20632;-51
2022/12/17 16:11:54;;;;;;;24.13;15.05;;;;;;;;;;5014851;28;20029;-51
2022/12/17 16:14:21;;;;;;;16.40;15.10;;;;;;;;;;5013451;28;20042;-53
2022/12/17 16:16:46;;;;;;;14.90;13.75;;;;;;;;;;5012517;28;20037;-53
2022/12/17 16:19:12;;;;;;;14.82;13.65;;;;;;;;;;5014605;28;20363;-53
2022/12/17 16:21:37;;;;;;;13.93;12.93;;;;;;;;;;5012339;28;20049;-53
2022/12/17 16:24:03;;;;;;;14.10;13.10;;;;;;;;;;5012674;28;20047;-50
2022/12/17 16:26:28;;;;;;;15.50;14.20;;;;;;;;;;5012853;28;20570;-53
2022/12/17 16:28:56;;;;;;;18.30;13.02;;;;;;;;;;5015441;28;20045;-53
2022/12/17 16:31:21;;;;;;;13.98;13.00;;;;;;;;;;5014320;28;20479;-49
2022/12/17 16:33:47;;;;;;;14.27;13.07;;;;;;;;;;5014307;28;20095;-53
2022/12/17 16:36:16;;;;;;;13.82;12.82;;;;;;;;;;5013607;28;20048;-54
2022/12/17 16:38:46;;;;;;;13.27;12.27;;;;;;;;;;5012593;28;20037;-52
2022/12/17 16:41:12;;;;;;;12.68;11.80;;;;;;;;;;5015959;28;20582;-51
2022/12/17 16:43:38;;;;;;;15.75;14.30;;;;;;;;;;5012550;28;20041;-50
2022/12/17 16:46:04;;;;;;;12.43;11.50;;;;;;;;;;5012068;28;21011;-52
2022/12/17 16:48:35;;;;;;;13.02;11.80;;;;;;;;;;5012450;28;20060;-53
2022/12/17 16:51:14;;;;;;;14.38;12.93;;;;;;;;;;5012267;28;20041;-53
2022/12/17 16:53:40;;;;;;;12.38;11.23;;;;;;;;;;5014974;28;20543;-49
2022/12/17 16:56:06;;;;;;;13.93;12.60;;;;;;;;;;5012109;28;20049;-52
2022/12/17 16:58:31;;;;;;;14.10;12.85;;;;;;;;;;5011626;28;20100;-53
2022/12/17 17:00:56;;;;;;;13.75;12.57;;;;;;;;;;5010832;28;20064;-52
2022/12/17 17:03:22;;;;;;;13.23;12.23;;;;;;;;;;5012706;28;20033;-50
2022/12/17 17:05:47;;;;;;;14.07;13.05;;;;;;;;;;5013523;28;20038;-51
2022/12/17 17:08:12;;;;;;;12.25;11.25;;;;;;;;;;5012247;28;20104;-52
2022/12/17 17:10:38;;;;;;;14.45;13.25;;;;;;;;;;5015142;28;20551;-52
2022/12/17 17:13:03;;;;;;;11.32;10.57;;;;;;;;;;5015248;28;20116;-52
2022/12/17 17:15:28;;;;;;;12.50;11.50;;;;;;;;;;5010331;28;20152;-53
2022/12/17 17:17:54;;;;;;;12.93;11.73;;;;;;;;;;5014145;28;20038;-61
2022/12/17 17:20:19;;;;;;;13.40;12.02;;;;;;;;;;5012112;28;20460;-61
2022/12/17 17:22:44;;;;;;;14.43;13.27;;;;;;;;;;5014115;28;20440;-61
2022/12/17 17:25:10;;;;;;;16.35;14.65;;;;;;;;;;5014777;28;20042;-61
2022/12/17 17:27:35;;;;;;;15.77;14.38;;;;;;;;;;5016131;28;20033;-61
2022/12/17 17:30:00;;;;;;;14.43;13.23;;;;;;;;;;5015720;28;20038;-61
2022/12/17 17:32:26;;;;;;;18.42;16.67;;;;;;;;;;5015430;28;20478;-61
2022/12/17 17:34:51;;;;;;;14.98;13.63;;;;;;;;;;5016576;28;20850;-61
2022/12/17 17:37:17;;;;;;;18.08;15.15;;;;;;;;;;5014249;28;20498;-61
2022/12/17 17:39:43;;;;;;;13.52;12.38;;;;;;;;;;5017635;28;20092;-60
2022/12/17 17:42:08;;;;;;;15.05;13.55;;;;;;;;;;5019221;28;20641;-61
2022/12/17 17:44:34;;;;;;;13.63;12.52;;;;;;;;;;5017174;28;20076;-61
2022/12/17 17:46:59;;;;;;;15.57;13.35;;;;;;;;;;5017407;28;20038;-61
2022/12/17 17:49:24;;;;;;;18.95;14.35;;;;;;;;;;5016439;28;20048;-61
2022/12/17 17:51:50;;;;;;;16.20;14.93;;;;;;;;;;5017978;28;20029;-60
2022/12/17 17:54:15;;;;;;;14.25;13.07;;;;;;;;;;5016906;28;20025;-60
2022/12/17 17:56:42;;;;;;;17.67;16.27;;;;;;;;;;5018010;28;20096;-60
2022/12/17 17:59:10;;;;;;;15.35;13.90;;;;;;;;;;5015923;28;20041;-59
2022/12/17 18:01:39;;;;;;;25.63;13.77;;;;;;;;;;5018762;28;20070;-59
2022/12/17 18:04:06;;;;;;;14.93;13.75;;;;;;;;;;5016388;28;20589;-59
2022/12/17 18:06:35;;;;;;;13.07;12.02;;;;;;;;;;5015919;28;20041;-60
2022/12/17 18:09:00;;;;;;;12.77;11.85;;;;;;;;;;5013986;28;20057;-60
2022/12/17 18:11:29;;;;;;;15.10;13.98;;;;;;;;;;5012040;28;20033;-61
2022/12/17 18:13:56;;;;;;;16.05;14.55;;;;;;;;;;5015652;28;20038;-61
2022/12/17 18:16:34;;;;;;;15.30;13.85;;;;;;;;;;5016314;28;20065;-61
2022/12/17 18:19:02;;;;;;;14.18;13.05;;;;;;;;;;5017073;28;20037;-60
2022/12/17 18:21:29;;;;;;;14.32;13.23;;;;;;;;;;5016766;28;20048;-61
2022/12/17 18:23:58;;;;;;;11.93;11.05;;;;;;;;;;5015187;28;20112;-54
2022/12/17 18:26:25;;;;;;;15.32;14.00;;;;;;;;;;5018447;28;20076;-54
2022/12/17 18:28:50;;;;;;;13.23;11.98;;;;;;;;;;5014460;28;20033;-52
2022/12/17 18:31:19;;;;;;;14.43;13.25;;;;;;;;;;5017798;28;20037;-53
2022/12/17 18:33:54;;;;;;;14.90;13.80;;;;;;;;;;5015840;28;20041;-54
2022/12/17 18:36:31;;;;;;;12.52;11.65;;;;;;;;;;5024550;28;20048;-54
2022/12/17 18:39:02;;;;;;;14.68;13.35;;;;;;;;;;5016761;28;20038;-61
2022/12/17 18:44:13;;;;;;;13.68;12.52;;;;;;;;;;5018148;28;20037;-61
2022/12/17 18:46:38;;;;;;;15.27;14.07;;;;;;;;;;5013750;28;20050;-61
2022/12/17 18:49:08;;;;;;;13.27;12.07;;;;;;;;;;5016794;28;20076;-54
2022/12/17 18:51:36;;;;;;;15.75;14.18;;;;;;;;;;5017536;28;20501;-55
2022/12/17 18:54:03;;;;;;;13.65;12.55;;;;;;;;;;5016736;28;20176;-54
2022/12/17 18:56:29;;;;;;;12.65;11.63;;;;;;;;;;5015844;28;20125;-55
2022/12/17 18:58:55;;;;;;;12.98;11.98;;;;;;;;;;5014465;28;20132;-55
2022/12/17 19:01:27;;;;;;;15.07;13.73;;;;;;;;;;5013467;28;20037;-55
2022/12/17 19:03:53;;;;;;;15.13;13.00;;;;;;;;;;5012518;28;20030;-61
2022/12/17 19:06:21;;;;;;;13.25;12.25;;;;;;;;;;5015064;28;20140;-61
2022/12/17 19:08:47;;;;;;;14.52;13.35;;;;;;;;;;5016138;28;20026;-61
2022/12/17 19:11:13;;;;;;;12.57;11.68;;;;;;;;;;5016389;28;20048;-53
2022/12/17 19:13:39;;;;;;;12.77;11.77;;;;;;;;;;5019274;28;20545;-59
2022/12/17 19:16:06;;;;;;;14.55;13.20;;;;;;;;;;5016896;28;20041;-53
2022/12/17 19:18:32;;;;;;;13.77;12.50;;;;;;;;;;5017215;28;20446;-60
2022/12/17 19:20:59;;;;;;;13.07;12.07;;;;;;;;;;5016153;28;20048;-53
2022/12/17 19:23:24;;;;;;;13.05;12.13;;;;;;;;;;5013952;28;20124;-53
2022/12/17 19:25:50;;;;;;;14.77;13.57;;;;;;;;;;5012059;28;20136;-53
2022/12/17 19:28:16;;;;;;;13.05;12.10;;;;;;;;;;5011546;28;20022;-52
2022/12/17 19:30:41;;;;;;;12.50;11.60;;;;;;;;;;5014243;28;20037;-54
2022/12/17 19:33:07;;;;;;;14.55;13.43;;;;;;;;;;5015040;28;20159;-52
2022/12/17 19:35:34;;;;;;;12.82;11.75;;;;;;;;;;5014910;28;20045;-55
2022/12/17 19:38:00;;;;;;;13.43;12.43;;;;;;;;;;5014219;28;20052;-53
2022/12/17 19:40:25;;;;;;;15.75;12.77;;;;;;;;;;5014075;28;20380;-51
2022/12/17 19:42:54;;;;;;;21.70;12.55;;;;;;;;;;5012999;28;20067;-52
2022/12/17 19:45:20;;;;;;;12.60;11.73;;;;;;;;;;5013048;28;20471;-52
2022/12/17 19:47:46;;;;;;;13.80;12.85;;;;;;;;;;5012182;28;20045;-53
2022/12/17 19:50:11;;;;;;;15.32;14.18;;;;;;;;;;5013774;28;20052;-52
2022/12/17 19:52:36;;;;;;;14.38;13.02;;;;;;;;;;5011323;28;20073;-54
2022/12/17 19:55:02;;;;;;;13.20;12.32;;;;;;;;;;5013223;28;20605;-54
2022/12/17 19:57:28;;;;;;;12.73;11.63;;;;;;;;;;5013283;28;20132;-52
2022/12/17 19:59:53;;;;;;;14.82;13.65;;;;;;;;;;5000332;28;20030;-55
2022/12/17 20:02:19;;;;;;;16.83;14.77;;;;;;;;;;5011652;28;20122;-54
2022/12/17 20:04:44;;;;;;;18.00;14.77;;;;;;;;;;5013878;28;20482;-55
2022/12/17 20:07:10;;;;;;;12.75;11.88;;;;;;;;;;5011012;28;20035;-52
2022/12/17 20:09:35;;;;;;;15.43;14.27;;;;;;;;;;5013346;28;20045;-54
2022/12/17 20:12:01;;;;;;;15.30;13.48;;;;;;;;;;5012609;28;20041;-54
2022/12/17 20:14:27;;;;;;;15.15;13.95;;;;;;;;;;5012638;28;20026;-51
2022/12/17 20:16:59;;;;;;;14.30;13.18;;;;;;;;;;5012212;28;20071;-53
2022/12/17 20:19:30;;;;;;;16.38;13.25;;;;;;;;;;5013763;28;20033;-54
2022/12/17 20:21:56;;;;;;;14.50;13.23;;;;;;;;;;5012490;28;20120;-55
2022/12/17 20:24:22;;;;;;;14.98;13.43;;;;;;;;;;5012456;28;20052;-52
2022/12/17 20:26:50;;;;;;;15.18;13.98;;;;;;;;;;5010792;28;20048;-53
2022/12/17 20:29:17;;;;;;;14.52;13.05;;;;;;;;;;5012133;28;20052;-55
2022/12/17 20:31:47;;;;;;;14.35;13.32;;;;;;;;;;5009015;28;20470;-53
2022/12/17 20:34:14;;;;;;;13.10;11.85;;;;;;;;;;5010038;28;20442;-53
2022/12/17 20:36:39;;;;;;;12.75;11.68;;;;;;;;;;5012034;28;20033;-51
2022/12/17 20:39:06;;;;;;;18.70;12.95;;;;;;;;;;5013419;28;20045;-53
2022/12/17 20:41:31;;;;;;;13.77;12.77;;;;;;;;;;5011432;28;20091;-56
2022/12/17 20:44:01;;;;;;;11.30;10.35;;;;;;;;;;5012555;28;20033;-50
2022/12/17 20:46:27;;;;;;;14.25;13.07;;;;;;;;;;5011964;28;20087;-54
2022/12/17 20:48:52;;;;;;;13.73;12.50;;;;;;;;;;5009101;28;20042;-52
2022/12/17 20:51:26;;;;;;;18.23;13.18;;;;;;;;;;5010100;28;20038;-50
2022/12/17 20:53:53;;;;;;;13.15;12.13;;;;;;;;;;5012682;28;20033;-55
2022/12/17 20:56:22;;;;;;;13.75;12.77;;;;;;;;;;5009361;28;20043;-50
2022/12/17 20:58:54;;;;;;;13.27;12.13;;;;;;;;;;5009552;28;20132;-54
2022/12/17 21:01:22;;;;;;;12.20;11.30;;;;;;;;;;5012261;28;20575;-53
2022/12/17 21:03:49;;;;;;;14.32;13.13;;;;;;;;;;5011307;28;20064;-54
2022/12/17 21:06:23;;;;;;;14.32;13.32;;;;;;;;;;5011799;28;20041;-53
2022/12/17 21:08:50;;;;;;;13.63;12.63;;;;;;;;;;5007891;28;20464;-50
2022/12/17 21:11:17;;;;;;;14.57;13.15;;;;;;;;;;5012302;28;20121;-54
2022/12/17 21:13:43;;;;;;;14.85;13.65;;;;;;;;;;5010840;28;20030;-51
2022/12/17 21:16:15;;;;;;;14.10;13.00;;;;;;;;;;5009880;28;20439;-52
2022/12/17 21:18:40;;;;;;;13.68;12.50;;;;;;;;;;5009628;28;20091;-53
2022/12/17 21:21:09;;;;;;;14.68;13.52;;;;;;;;;;5010575;28;20030;-54
2022/12/17 21:23:36;;;;;;;12.50;11.70;;;;;;;;;;5012719;28;20033;-55
2022/12/17 21:26:01;;;;;;;13.60;12.68;;;;;;;;;;5013145;28;20099;-53
2022/12/17 21:28:27;;;;;;;16.00;14.82;;;;;;;;;;5010156;28;20490;-50
2022/12/17 21:30:53;;;;;;;12.73;11.48;;;;;;;;;;5013430;28;21015;-54
2022/12/17 21:33:18;;;;;;;13.93;12.73;;;;;;;;;;5012497;28;20037;-55
2022/12/17 21:35:44;;;;;;;11.35;10.57;;;;;;;;;;5009139;28;20049;-55
2022/12/17 21:38:09;;;;;;;15.10;12.88;;;;;;;;;;5006015;28;20034;-54
2022/12/17 21:40:35;;;;;;;21.02;12.38;;;;;;;;;;5008296;28;20041;-54
2022/12/17 21:43:00;;;;;;;12.20;11.35;;;;;;;;;;5018602;28;20033;-54
2022/12/17 21:45:26;;;;;;;14.38;12.95;;;;;;;;;;5007270;28;20057;-53
2022/12/17 21:47:52;;;;;;;13.60;12.55;;;;;;;;;;5012812;28;20116;-54
2022/12/17 21:50:17;;;;;;;14.57;13.50;;;;;;;;;;5010871;28;20049;-53
2022/12/17 21:52:42;;;;;;;14.73;13.30;;;;;;;;;;5010645;28;20069;-51
2022/12/17 21:55:08;;;;;;;13.20;12.27;;;;;;;;;;5009400;28;20048;-52
2022/12/17 21:57:33;;;;;;;14.60;13.23;;;;;;;;;;5009418;28;20369;-52
2022/12/17 21:59:59;;;;;;;15.32;13.98;;;;;;;;;;5011577;28;20034;-53
2022/12/17 22:02:24;;;;;;;12.80;11.77;;;;;;;;;;5008959;28;20038;-54
2022/12/17 22:04:49;;;;;;;17.00;15.27;;;;;;;;;;5008315;28;20036;-51
2022/12/17 22:07:15;;;;;;;13.15;12.00;;;;;;;;;;5009493;28;20459;-52
2022/12/17 22:09:40;;;;;;;14.63;13.43;;;;;;;;;;5007983;28;20770;-52
2022/12/17 22:14:49;;;;;;;13.35;11.85;;;;;;;;;;5016103;28;20076;-51
2022/12/17 22:17:15;;;;;;;13.90;12.65;;;;;;;;;;5015709;28;20623;-49
2022/12/17 22:19:40;;;;;;;14.10;13.00;;;;;;;;;;5012948;28;20476;-51
2022/12/17 22:22:06;;;;;;;12.48;11.60;;;;;;;;;;5015197;28;20091;-53
2022/12/17 22:24:31;;;;;;;15.02;13.48;;;;;;;;;;5014652;28;20060;-50
2022/12/17 22:26:59;;;;;;;13.80;12.52;;;;;;;;;;5011148;28;20092;-54
2022/12/17 22:34:57;;;;;;;13.45;12.48;;;;;;;;;;5013262;28;20038;-52
2022/12/17 22:37:23;;;;;;;12.57;11.32;;;;;;;;;;5011407;28;20401;-52
2022/12/17 22:39:49;;;;;;;13.60;12.50;;;;;;;;;;5011992;28;20037;-48
2022/12/17 22:44:58;;;;;;;12.35;11.43;;;;;;;;;;5013265;28;20034;-53
2022/12/17 22:47:23;;;;;;;14.43;13.32;;;;;;;;;;5013719;28;20044;-53
2022/12/17 22:49:49;;;;;;;14.38;13.27;;;;;;;;;;5018317;28;20121;-52
2022/12/17 22:52:14;;;;;;;14.80;12.77;;;;;;;;;;5017801;28;20033;-59
2022/12/17 22:54:39;;;;;;;13.10;12.20;;;;;;;;;;5021014;28;20098;-59
2022/12/17 22:57:08;;;;;;;14.23;13.05;;;;;;;;;;5021673;28;20431;-59
2022/12/17 22:59:33;;;;;;;13.38;12.38;;;;;;;;;;5019984;28;20034;-59
2022/12/17 23:01:58;;;;;;;12.32;11.38;;;;;;;;;;5018825;28;20617;-59
2022/12/17 23:04:24;;;;;;;17.13;13.63;;;;;;;;;;5018671;28;20069;-59
2022/12/17 23:06:49;;;;;;;12.43;11.35;;;;;;;;;;5014860;28;20041;-60
2022/12/17 23:09:17;;;;;;;19.25;13.50;;;;;;;;;;5013790;28;20036;-60
2022/12/17 23:11:44;;;;;;;12.57;11.60;;;;;;;;;;5011655;28;20029;-60
2022/12/17 23:14:09;;;;;;;11.20;10.07;;;;;;;;;;5013120;28;20037;-60
2022/12/17 23:16:37;;;;;;;12.93;12.02;;;;;;;;;;5015179;28;20467;-60
2022/12/17 23:19:03;;;;;;;13.02;12.23;;;;;;;;;;5014841;28;20033;-60
2022/12/17 23:21:29;;;;;;;12.38;11.45;;;;;;;;;;5011976;28;20037;-60
2022/12/17 23:23:55;;;;;;;13.65;12.65;;;;;;;;;;5011388;28;20044;-60
2022/12/17 23:26:24;;;;;;;12.82;11.60;;;;;;;;;;4995813;28;20076;-60
2022/12/17 23:28:56;;;;;;;12.25;11.23;;;;;;;;;;5017547;28;20112;-60
2022/12/17 23:31:21;;;;;;;13.48;12.32;;;;;;;;;;5013028;28;20043;-60
2022/12/17 23:33:47;;;;;;;12.38;11.27;;;;;;;;;;5014355;28;20022;-61
2022/12/17 23:36:15;;;;;;;12.93;11.82;;;;;;;;;;5012960;28;20542;-60
2022/12/17 23:38:41;;;;;;;12.52;11.52;;;;;;;;;;5012974;28;20030;-60
2022/12/17 23:41:09;;;;;;;12.07;10.95;;;;;;;;;;5013018;28;20391;-60
2022/12/17 23:43:35;;;;;;;11.50;10.68;;;;;;;;;;5012818;28;20052;-60
2022/12/17 23:46:01;;;;;;;12.55;11.55;;;;;;;;;;5015224;28;20033;-60
2022/12/17 23:48:31;;;;;;;13.43;12.02;;;;;;;;;;5015770;28;20519;-60
2022/12/17 23:51:00;;;;;;;14.82;13.27;;;;;;;;;;5014700;28;20124;-60
2022/12/17 23:53:27;;;;;;;11.88;10.98;;;;;;;;;;5019017;28;20115;-59
2022/12/17 23:55:53;;;;;;;14.70;13.45;;;;;;;;;;5014528;28;20113;-60
2022/12/17 23:58:19;;;;;;;16.98;11.02;;;;;;;;;;5012614;28;20034;-60
